sensor_id;sensor_type;location;lat;lon;timestamp;pressure;altitude;pressure_sealevel;temperature;humidity
36932;BME280;22847;42.654;23.370;2023-07-22T00:00:46;94623.69;;;27.62;44.45
36932;BME280;22847;42.654;23.370;2023-07-22T00:03:12;94607.03;;;27.38;45.04
36932;BME280;22847;42.654;23.370;2023-07-22T00:05:37;94586.63;;;27.32;45.20
36932;BME280;22847;42.654;23.370;2023-07-22T00:08:03;94579.16;;;27.12;45.02
36932;BME280;22847;42.654;23.370;2023-07-22T00:10:28;94605.16;;;27.38;45.09
36932;BME280;22847;42.654;23.370;2023-07-22T00:12:54;94584.25;;;27.14;45.16
36932;BME280;22847;42.654;23.370;2023-07-22T00:15:19;94615.03;;;27.33;45.48
36932;BME280;22847;42.654;23.370;2023-07-22T00:17:47;94605.81;;;27.24;45.84
36932;BME280;22847;42.654;23.370;2023-07-22T00:20:12;94498.16;;;26.40;46.08
36932;BME280;22847;42.654;23.370;2023-07-22T00:22:39;94621.53;;;27.20;46.09
36932;BME280;22847;42.654;23.370;2023-07-22T00:25:09;94614.38;;;27.26;46.12
36932;BME280;22847;42.654;23.370;2023-07-22T00:27:37;94598.25;;;27.21;46.32
36932;BME280;22847;42.654;23.370;2023-07-22T00:30:04;94631.56;;;27.30;45.76
36932;BME280;22847;42.654;23.370;2023-07-22T00:32:29;94616.91;;;27.32;46.11
36932;BME280;22847;42.654;23.370;2023-07-22T00:34:55;94616.09;;;27.32;45.87
36932;BME280;22847;42.654;23.370;2023-07-22T00:37:20;94617.50;;;27.39;45.83
36932;BME280;22847;42.654;23.370;2023-07-22T00:39:46;94612.97;;;27.18;46.30
36932;BME280;22847;42.654;23.370;2023-07-22T00:42:11;94612.66;;;27.15;46.09
36932;BME280;22847;42.654;23.370;2023-07-22T00:44:37;94601.69;;;26.78;47.05
36932;BME280;22847;42.654;23.370;2023-07-22T00:47:02;94517.88;;;26.34;46.99
36932;BME280;22847;42.654;23.370;2023-07-22T00:49:29;94624.19;;;26.98;47.12
36932;BME280;22847;42.654;23.370;2023-07-22T00:52:01;94647.31;;;27.04;46.87
36932;BME280;22847;42.654;23.370;2023-07-22T00:54:28;94511.13;;;26.31;46.92
36932;BME280;22847;42.654;23.370;2023-07-22T00:56:54;94577.16;;;26.47;47.24
36932;BME280;22847;42.654;23.370;2023-07-22T00:59:19;94522.31;;;25.95;47.42
36932;BME280;22847;42.654;23.370;2023-07-22T01:01:46;94637.03;;;26.63;47.46
36932;BME280;22847;42.654;23.370;2023-07-22T01:04:14;94618.72;;;26.72;47.10
36932;BME280;22847;42.654;23.370;2023-07-22T01:06:42;94618.91;;;26.65;47.14
36932;BME280;22847;42.654;23.370;2023-07-22T01:09:09;94585.66;;;26.61;47.14
36932;BME280;22847;42.654;23.370;2023-07-22T01:11:34;94611.00;;;26.75;47.17
36932;BME280;22847;42.654;23.370;2023-07-22T01:14:00;94582.41;;;26.59;47.00
36932;BME280;22847;42.654;23.370;2023-07-22T01:16:27;94604.84;;;26.75;47.29
36932;BME280;22847;42.654;23.370;2023-07-22T01:18:53;94495.00;;;25.76;47.89
36932;BME280;22847;42.654;23.370;2023-07-22T01:21:19;94556.50;;;26.26;47.81
36932;BME280;22847;42.654;23.370;2023-07-22T01:23:47;94606.91;;;26.51;48.25
36932;BME280;22847;42.654;23.370;2023-07-22T01:26:13;94612.00;;;26.52;48.56
36932;BME280;22847;42.654;23.370;2023-07-22T01:28:38;94577.22;;;26.19;48.83
36932;BME280;22847;42.654;23.370;2023-07-22T01:31:03;94588.66;;;26.31;48.89
36932;BME280;22847;42.654;23.370;2023-07-22T01:33:31;94600.25;;;26.53;48.59
36932;BME280;22847;42.654;23.370;2023-07-22T01:35:57;94607.53;;;26.58;49.58
36932;BME280;22847;42.654;23.370;2023-07-22T01:38:22;94592.00;;;26.55;50.32
36932;BME280;22847;42.654;23.370;2023-07-22T01:40:47;94590.53;;;26.47;51.14
36932;BME280;22847;42.654;23.370;2023-07-22T01:43:13;94486.94;;;25.43;51.99
36932;BME280;22847;42.654;23.370;2023-07-22T01:45:38;94596.56;;;26.09;52.54
36932;BME280;22847;42.654;23.370;2023-07-22T01:48:05;94592.91;;;25.99;53.72
36932;BME280;22847;42.654;23.370;2023-07-22T01:50:31;94606.53;;;25.97;53.81
36932;BME280;22847;42.654;23.370;2023-07-22T01:52:57;94588.13;;;25.84;54.56
36932;BME280;22847;42.654;23.370;2023-07-22T01:55:22;94505.44;;;25.04;55.63
36932;BME280;22847;42.654;23.370;2023-07-22T01:57:48;94566.03;;;24.92;57.15
36932;BME280;22847;42.654;23.370;2023-07-22T02:00:13;94582.69;;;25.51;56.16
36932;BME280;22847;42.654;23.370;2023-07-22T02:02:42;94596.25;;;25.61;56.12
36932;BME280;22847;42.654;23.370;2023-07-22T02:05:08;94557.63;;;25.40;56.08
36932;BME280;22847;42.654;23.370;2023-07-22T02:07:37;94501.09;;;24.75;57.54
36932;BME280;22847;42.654;23.370;2023-07-22T02:10:03;94588.97;;;25.16;57.60
36932;BME280;22847;42.654;23.370;2023-07-22T02:12:28;94467.47;;;24.74;57.02
36932;BME280;22847;42.654;23.370;2023-07-22T02:14:54;94567.97;;;25.37;56.67
36932;BME280;22847;42.654;23.370;2023-07-22T02:17:19;94553.31;;;25.51;56.47
36932;BME280;22847;42.654;23.370;2023-07-22T02:19:45;94481.84;;;25.13;56.17
36932;BME280;22847;42.654;23.370;2023-07-22T02:22:11;94599.69;;;25.90;55.95
36932;BME280;22847;42.654;23.370;2023-07-22T02:24:37;94552.59;;;25.27;57.93
36932;BME280;22847;42.654;23.370;2023-07-22T02:27:03;94555.22;;;25.39;56.92
36932;BME280;22847;42.654;23.370;2023-07-22T02:29:29;94575.97;;;25.08;58.59
36932;BME280;22847;42.654;23.370;2023-07-22T02:31:56;94605.66;;;25.52;57.37
36932;BME280;22847;42.654;23.370;2023-07-22T02:34:23;94580.69;;;25.18;58.23
36932;BME280;22847;42.654;23.370;2023-07-22T02:36:48;94583.50;;;25.51;57.18
36932;BME280;22847;42.654;23.370;2023-07-22T02:39:14;94598.66;;;25.62;56.74
36932;BME280;22847;42.654;23.370;2023-07-22T02:41:39;94567.84;;;25.43;57.12
36932;BME280;22847;42.654;23.370;2023-07-22T02:44:05;94615.06;;;25.66;56.99
36932;BME280;22847;42.654;23.370;2023-07-22T02:46:30;94595.72;;;25.75;56.77
36932;BME280;22847;42.654;23.370;2023-07-22T02:48:57;94595.63;;;25.70;57.08
36932;BME280;22847;42.654;23.370;2023-07-22T02:51:22;94486.34;;;24.84;57.44
36932;BME280;22847;42.654;23.370;2023-07-22T02:53:48;94465.94;;;24.78;57.30
36932;BME280;22847;42.654;23.370;2023-07-22T02:56:13;94592.44;;;25.57;57.24
36932;BME280;22847;42.654;23.370;2023-07-22T02:58:39;94591.56;;;25.68;57.13
36932;BME280;22847;42.654;23.370;2023-07-22T03:01:07;94578.94;;;25.63;56.87
36932;BME280;22847;42.654;23.370;2023-07-22T03:03:34;94605.13;;;25.78;57.11
36932;BME280;22847;42.654;23.370;2023-07-22T03:06:00;94587.66;;;25.59;57.16
36932;BME280;22847;42.654;23.370;2023-07-22T03:08:26;94600.47;;;25.57;57.80
36932;BME280;22847;42.654;23.370;2023-07-22T03:10:52;94432.63;;;24.52;57.51
36932;BME280;22847;42.654;23.370;2023-07-22T03:13:17;94605.03;;;25.33;58.36
36932;BME280;22847;42.654;23.370;2023-07-22T03:15:43;94623.84;;;25.26;58.76
36932;BME280;22847;42.654;23.370;2023-07-22T03:18:09;94579.44;;;25.20;58.47
36932;BME280;22847;42.654;23.370;2023-07-22T03:20:38;94605.06;;;25.50;57.29
36932;BME280;22847;42.654;23.370;2023-07-22T03:23:07;94537.53;;;25.21;56.59
36932;BME280;22847;42.654;23.370;2023-07-22T03:25:33;94503.16;;;24.96;55.77
36932;BME280;22847;42.654;23.370;2023-07-22T03:28:07;94614.84;;;25.56;55.23
36932;BME280;22847;42.654;23.370;2023-07-22T03:30:33;94606.44;;;25.64;54.44
36932;BME280;22847;42.654;23.370;2023-07-22T03:32:59;94497.09;;;25.01;54.48
36932;BME280;22847;42.654;23.370;2023-07-22T03:35:26;94615.38;;;25.69;54.10
36932;BME280;22847;42.654;23.370;2023-07-22T03:37:51;94611.75;;;25.75;54.11
36932;BME280;22847;42.654;23.370;2023-07-22T03:40:17;94623.00;;;25.77;56.19
36932;BME280;22847;42.654;23.370;2023-07-22T03:42:50;94511.59;;;25.05;54.20
36932;BME280;22847;42.654;23.370;2023-07-22T03:45:16;94638.69;;;25.74;54.45
36932;BME280;22847;42.654;23.370;2023-07-22T03:47:44;94632.97;;;25.54;54.73
36932;BME280;22847;42.654;23.370;2023-07-22T03:50:10;94642.22;;;25.63;54.92
36932;BME280;22847;42.654;23.370;2023-07-22T03:52:36;94610.41;;;25.50;54.64
36932;BME280;22847;42.654;23.370;2023-07-22T03:55:02;94638.66;;;25.46;55.08
36932;BME280;22847;42.654;23.370;2023-07-22T03:57:27;94553.28;;;24.71;55.79
36932;BME280;22847;42.654;23.370;2023-07-22T03:59:54;94644.09;;;25.51;55.25
36932;BME280;22847;42.654;23.370;2023-07-22T04:02:19;94647.34;;;25.53;55.40
36932;BME280;22847;42.654;23.370;2023-07-22T04:04:45;94603.91;;;25.17;55.43
36932;BME280;22847;42.654;23.370;2023-07-22T04:07:10;94652.44;;;25.66;55.27
36932;BME280;22847;42.654;23.370;2023-07-22T04:09:35;94664.13;;;25.76;55.02
36932;BME280;22847;42.654;23.370;2023-07-22T04:12:01;94653.63;;;25.87;55.03
36932;BME280;22847;42.654;23.370;2023-07-22T04:14:26;94642.31;;;25.96;54.82
36932;BME280;22847;42.654;23.370;2023-07-22T04:16:52;94650.97;;;26.48;53.71
36932;BME280;22847;42.654;23.370;2023-07-22T04:19:17;94649.25;;;26.76;52.13
36932;BME280;22847;42.654;23.370;2023-07-22T04:21:43;94627.16;;;27.19;51.07
36932;BME280;22847;42.654;23.370;2023-07-22T04:24:08;94656.38;;;27.85;49.96
36932;BME280;22847;42.654;23.370;2023-07-22T04:26:35;94655.09;;;28.15;49.18
36932;BME280;22847;42.654;23.370;2023-07-22T04:29:01;94679.31;;;28.52;48.44
36932;BME280;22847;42.654;23.370;2023-07-22T04:31:26;94644.28;;;28.63;47.87
36932;BME280;22847;42.654;23.370;2023-07-22T04:33:51;94659.47;;;28.85;47.35
36932;BME280;22847;42.654;23.370;2023-07-22T04:36:17;94669.78;;;28.98;47.60
36932;BME280;22847;42.654;23.370;2023-07-22T04:38:42;94562.31;;;28.51;46.79
36932;BME280;22847;42.654;23.370;2023-07-22T04:41:08;94574.75;;;28.62;46.77
36932;BME280;22847;42.654;23.370;2023-07-22T04:43:33;94661.94;;;29.33;46.53
36932;BME280;22847;42.654;23.370;2023-07-22T04:45:58;94670.31;;;29.42;46.21
36932;BME280;22847;42.654;23.370;2023-07-22T04:48:24;94672.34;;;29.72;45.39
36932;BME280;22847;42.654;23.370;2023-07-22T04:50:50;94678.34;;;29.89;45.20
36932;BME280;22847;42.654;23.370;2023-07-22T04:53:17;94671.91;;;29.95;44.87
36932;BME280;22847;42.654;23.370;2023-07-22T04:55:43;94563.13;;;29.50;44.49
36932;BME280;22847;42.654;23.370;2023-07-22T04:58:08;94652.88;;;30.22;44.22
36932;BME280;22847;42.654;23.370;2023-07-22T05:00:35;94678.19;;;30.41;44.44
36932;BME280;22847;42.654;23.370;2023-07-22T05:03:02;94657.47;;;30.36;44.01
36932;BME280;22847;42.654;23.370;2023-07-22T05:05:27;94622.22;;;30.23;43.97
36932;BME280;22847;42.654;23.370;2023-07-22T05:07:53;94689.28;;;30.65;43.31
36932;BME280;22847;42.654;23.370;2023-07-22T05:10:19;94689.56;;;30.78;43.70
36932;BME280;22847;42.654;23.370;2023-07-22T05:12:45;94667.75;;;30.75;43.64
36932;BME280;22847;42.654;23.370;2023-07-22T05:15:11;94713.81;;;30.83;43.30
36932;BME280;22847;42.654;23.370;2023-07-22T05:17:37;94700.03;;;30.90;43.45
36932;BME280;22847;42.654;23.370;2023-07-22T05:20:02;94697.94;;;31.02;43.11
36932;BME280;22847;42.654;23.370;2023-07-22T05:22:31;94652.94;;;30.87;42.75
36932;BME280;22847;42.654;23.370;2023-07-22T05:24:56;94582.09;;;30.82;42.56
36932;BME280;22847;42.654;23.370;2023-07-22T05:27:22;94689.78;;;31.48;42.34
36932;BME280;22847;42.654;23.370;2023-07-22T05:29:47;94647.50;;;31.23;41.85
36932;BME280;22847;42.654;23.370;2023-07-22T05:32:13;94695.44;;;31.56;41.95
36932;BME280;22847;42.654;23.370;2023-07-22T05:34:38;94688.66;;;31.69;41.81
36932;BME280;22847;42.654;23.370;2023-07-22T05:37:04;94685.84;;;31.89;41.69
36932;BME280;22847;42.654;23.370;2023-07-22T05:39:30;94711.16;;;31.98;41.89
36932;BME280;22847;42.654;23.370;2023-07-22T05:41:55;94664.03;;;31.80;41.62
36932;BME280;22847;42.654;23.370;2023-07-22T05:44:21;94670.22;;;31.86;41.57
36932;BME280;22847;42.654;23.370;2023-07-22T05:46:47;94662.50;;;31.64;41.42
36932;BME280;22847;42.654;23.370;2023-07-22T05:49:12;94710.69;;;31.91;41.13
36932;BME280;22847;42.654;23.370;2023-07-22T05:51:38;94690.91;;;32.11;41.39
36932;BME280;22847;42.654;23.370;2023-07-22T05:54:03;94684.81;;;32.39;40.80
36932;BME280;22847;42.654;23.370;2023-07-22T05:56:29;94648.41;;;32.31;41.40
36932;BME280;22847;42.654;23.370;2023-07-22T05:58:55;94693.19;;;32.82;39.74
36932;BME280;22847;42.654;23.370;2023-07-22T06:01:20;94666.13;;;32.87;39.77
36932;BME280;22847;42.654;23.370;2023-07-22T06:03:47;94678.91;;;32.76;39.56
36932;BME280;22847;42.654;23.370;2023-07-22T06:06:13;94672.19;;;32.73;39.19
36932;BME280;22847;42.654;23.370;2023-07-22T06:08:38;94590.28;;;32.44;39.33
36932;BME280;22847;42.654;23.370;2023-07-22T06:11:04;94697.75;;;33.15;39.40
36932;BME280;22847;42.654;23.370;2023-07-22T06:13:29;94706.72;;;33.39;39.44
36932;BME280;22847;42.654;23.370;2023-07-22T06:15:55;94718.19;;;33.55;38.79
36932;BME280;22847;42.654;23.370;2023-07-22T06:18:20;94698.66;;;33.34;38.90
36932;BME280;22847;42.654;23.370;2023-07-22T06:20:46;94719.31;;;33.54;38.86
36932;BME280;22847;42.654;23.370;2023-07-22T06:23:11;94718.81;;;33.47;38.33
36932;BME280;22847;42.654;23.370;2023-07-22T06:25:36;94724.16;;;33.52;37.87
36932;BME280;22847;42.654;23.370;2023-07-22T06:28:02;94720.88;;;33.31;38.57
36932;BME280;22847;42.654;23.370;2023-07-22T06:30:28;94741.47;;;33.51;38.27
36932;BME280;22847;42.654;23.370;2023-07-22T06:32:54;94737.81;;;33.66;37.22
36932;BME280;22847;42.654;23.370;2023-07-22T06:35:19;94728.28;;;33.73;37.39
36932;BME280;22847;42.654;23.370;2023-07-22T06:37:45;94729.09;;;33.74;37.44
36932;BME280;22847;42.654;23.370;2023-07-22T06:40:10;94734.41;;;34.08;36.92
36932;BME280;22847;42.654;23.370;2023-07-22T06:42:36;94717.38;;;33.83;37.06
36932;BME280;22847;42.654;23.370;2023-07-22T06:45:02;94742.06;;;34.00;37.62
36932;BME280;22847;42.654;23.370;2023-07-22T06:47:28;94717.47;;;33.73;37.97
36932;BME280;22847;42.654;23.370;2023-07-22T06:49:53;94720.59;;;33.85;37.80
36932;BME280;22847;42.654;23.370;2023-07-22T06:52:19;94635.41;;;33.59;37.18
36932;BME280;22847;42.654;23.370;2023-07-22T06:54:44;94753.00;;;34.57;37.28
36932;BME280;22847;42.654;23.370;2023-07-22T06:57:09;94673.25;;;34.06;36.92
36932;BME280;22847;42.654;23.370;2023-07-22T06:59:35;94743.97;;;34.66;36.55
36932;BME280;22847;42.654;23.370;2023-07-22T07:02:01;94638.50;;;34.32;36.33
36932;BME280;22847;42.654;23.370;2023-07-22T07:04:27;94716.19;;;34.74;36.28
36932;BME280;22847;42.654;23.370;2023-07-22T07:06:52;94678.81;;;34.15;36.74
36932;BME280;22847;42.654;23.370;2023-07-22T07:09:17;94711.56;;;34.56;36.59
36932;BME280;22847;42.654;23.370;2023-07-22T07:11:43;94708.41;;;34.86;36.68
36932;BME280;22847;42.654;23.370;2023-07-22T07:14:08;94730.28;;;35.09;36.38
36932;BME280;22847;42.654;23.370;2023-07-22T07:16:34;94715.97;;;35.22;36.26
36932;BME280;22847;42.654;23.370;2023-07-22T07:19:01;94722.94;;;35.28;36.79
36932;BME280;22847;42.654;23.370;2023-07-22T07:21:27;94644.13;;;35.06;36.05
36932;BME280;22847;42.654;23.370;2023-07-22T07:23:54;94641.88;;;35.26;35.87
36932;BME280;22847;42.654;23.370;2023-07-22T07:26:20;94613.66;;;34.81;35.75
36932;BME280;22847;42.654;23.370;2023-07-22T07:28:47;94715.53;;;35.79;35.75
36932;BME280;22847;42.654;23.370;2023-07-22T07:31:13;94701.44;;;35.77;35.26
36932;BME280;22847;42.654;23.370;2023-07-22T07:33:38;94711.47;;;36.04;34.83
36932;BME280;22847;42.654;23.370;2023-07-22T07:36:04;94700.72;;;36.27;34.33
36932;BME280;22847;42.654;23.370;2023-07-22T07:38:30;94591.44;;;35.12;34.32
36932;BME280;22847;42.654;23.370;2023-07-22T07:40:58;94688.81;;;35.54;35.11
36932;BME280;22847;42.654;23.370;2023-07-22T07:43:24;94684.66;;;35.75;35.02
36932;BME280;22847;42.654;23.370;2023-07-22T07:45:50;94696.31;;;36.17;34.32
36932;BME280;22847;42.654;23.370;2023-07-22T07:48:16;94695.91;;;35.96;34.36
36932;BME280;22847;42.654;23.370;2023-07-22T07:50:42;94683.59;;;35.30;34.06
36932;BME280;22847;42.654;23.370;2023-07-22T07:53:08;94713.91;;;35.65;34.03
36932;BME280;22847;42.654;23.370;2023-07-22T07:55:33;94709.81;;;35.62;34.37
36932;BME280;22847;42.654;23.370;2023-07-22T07:57:59;94694.00;;;35.97;34.75
36932;BME280;22847;42.654;23.370;2023-07-22T08:00:24;94680.63;;;36.00;34.71
36932;BME280;22847;42.654;23.370;2023-07-22T08:02:49;94583.19;;;34.89;34.01
36932;BME280;22847;42.654;23.370;2023-07-22T08:05:15;94663.22;;;36.01;33.87
36932;BME280;22847;42.654;23.370;2023-07-22T08:07:41;94616.66;;;35.53;34.05
36932;BME280;22847;42.654;23.370;2023-07-22T08:10:07;94597.28;;;35.87;33.46
36932;BME280;22847;42.654;23.370;2023-07-22T08:12:33;94694.59;;;36.21;34.32
36932;BME280;22847;42.654;23.370;2023-07-22T08:14:59;94673.56;;;35.99;34.33
36932;BME280;22847;42.654;23.370;2023-07-22T08:17:25;94597.09;;;35.56;34.13
36932;BME280;22847;42.654;23.370;2023-07-22T08:19:50;94670.47;;;35.92;34.51
36932;BME280;22847;42.654;23.370;2023-07-22T08:22:15;94685.66;;;35.93;33.84
36932;BME280;22847;42.654;23.370;2023-07-22T08:24:41;94679.72;;;36.18;34.04
36932;BME280;22847;42.654;23.370;2023-07-22T08:27:07;94692.50;;;36.18;33.79
36932;BME280;22847;42.654;23.370;2023-07-22T08:29:32;94602.72;;;35.32;33.61
36932;BME280;22847;42.654;23.370;2023-07-22T08:31:58;94668.34;;;35.89;34.00
36932;BME280;22847;42.654;23.370;2023-07-22T08:34:23;94603.03;;;35.72;34.92
36932;BME280;22847;42.654;23.370;2023-07-22T08:36:49;94573.78;;;35.69;34.72
36932;BME280;22847;42.654;23.370;2023-07-22T08:39:14;94663.25;;;35.88;34.68
36932;BME280;22847;42.654;23.370;2023-07-22T08:41:40;94681.69;;;35.58;35.78
36932;BME280;22847;42.654;23.370;2023-07-22T08:44:08;94656.47;;;35.44;35.55
36932;BME280;22847;42.654;23.370;2023-07-22T08:46:36;94656.19;;;36.14;34.48
36932;BME280;22847;42.654;23.370;2023-07-22T08:49:04;94650.53;;;36.24;34.68
36932;BME280;22847;42.654;23.370;2023-07-22T08:51:31;94560.97;;;35.97;33.84
36932;BME280;22847;42.654;23.370;2023-07-22T08:53:57;94647.56;;;36.34;32.96
36932;BME280;22847;42.654;23.370;2023-07-22T08:56:24;94626.06;;;35.15;34.29
36932;BME280;22847;42.654;23.370;2023-07-22T08:58:51;94625.84;;;34.98;34.83
36932;BME280;22847;42.654;23.370;2023-07-22T09:01:18;94543.44;;;35.12;33.70
36932;BME280;22847;42.654;23.370;2023-07-22T09:03:43;94613.88;;;35.86;33.84
36932;BME280;22847;42.654;23.370;2023-07-22T09:06:10;94632.97;;;36.44;33.70
36932;BME280;22847;42.654;23.370;2023-07-22T09:08:35;94630.53;;;34.92;34.66
36932;BME280;22847;42.654;23.370;2023-07-22T09:11:02;94597.38;;;34.49;35.27
36932;BME280;22847;42.654;23.370;2023-07-22T09:13:28;94505.56;;;34.66;34.61
36932;BME280;22847;42.654;23.370;2023-07-22T09:15:54;94556.72;;;35.41;33.47
36932;BME280;22847;42.654;23.370;2023-07-22T09:18:22;94633.81;;;35.08;34.35
36932;BME280;22847;42.654;23.370;2023-07-22T09:20:47;94638.50;;;34.70;35.04
36932;BME280;22847;42.654;23.370;2023-07-22T09:23:13;94627.84;;;35.38;33.73
36932;BME280;22847;42.654;23.370;2023-07-22T09:25:40;94560.88;;;34.60;33.84
36932;BME280;22847;42.654;23.370;2023-07-22T09:28:06;94627.03;;;35.51;33.74
36932;BME280;22847;42.654;23.370;2023-07-22T09:30:35;94625.53;;;35.72;33.64
36932;BME280;22847;42.654;23.370;2023-07-22T09:33:02;94611.56;;;35.38;33.58
36932;BME280;22847;42.654;23.370;2023-07-22T09:35:30;94623.31;;;34.87;34.66
36932;BME280;22847;42.654;23.370;2023-07-22T09:37:56;94629.34;;;35.44;34.26
36932;BME280;22847;42.654;23.370;2023-07-22T09:40:25;94611.38;;;35.75;33.20
36932;BME280;22847;42.654;23.370;2023-07-22T09:42:52;94532.19;;;35.46;32.55
36932;BME280;22847;42.654;23.370;2023-07-22T09:45:20;94621.66;;;36.28;33.41
36932;BME280;22847;42.654;23.370;2023-07-22T09:47:47;94603.34;;;36.56;31.15
36932;BME280;22847;42.654;23.370;2023-07-22T09:50:18;94587.47;;;36.72;30.72
36932;BME280;22847;42.654;23.370;2023-07-22T09:52:49;94600.19;;;36.85;31.17
36932;BME280;22847;42.654;23.370;2023-07-22T09:55:17;94590.31;;;37.20;31.01
36932;BME280;22847;42.654;23.370;2023-07-22T09:57:58;94508.13;;;36.92;30.78
36932;BME280;22847;42.654;23.370;2023-07-22T10:00:28;94575.97;;;37.28;31.02
36932;BME280;22847;42.654;23.370;2023-07-22T10:02:56;94590.00;;;37.52;31.50
36932;BME280;22847;42.654;23.370;2023-07-22T10:05:22;94584.81;;;36.36;32.54
36932;BME280;22847;42.654;23.370;2023-07-22T10:07:55;94477.84;;;35.65;32.05
36932;BME280;22847;42.654;23.370;2023-07-22T10:10:25;94505.59;;;35.98;31.68
36932;BME280;22847;42.654;23.370;2023-07-22T10:12:51;94587.00;;;36.70;32.34
36932;BME280;22847;42.654;23.370;2023-07-22T10:15:18;94584.00;;;36.80;32.31
36932;BME280;22847;42.654;23.370;2023-07-22T10:17:44;94598.19;;;36.99;30.66
36932;BME280;22847;42.654;23.370;2023-07-22T10:20:11;94492.94;;;36.38;31.39
36932;BME280;22847;42.654;23.370;2023-07-22T10:22:46;94600.38;;;36.88;31.28
36932;BME280;22847;42.654;23.370;2023-07-22T10:25:15;94582.66;;;36.91;30.75
36932;BME280;22847;42.654;23.370;2023-07-22T10:27:41;94493.63;;;36.65;31.19
36932;BME280;22847;42.654;23.370;2023-07-22T10:30:09;94480.72;;;36.80;30.70
36932;BME280;22847;42.654;23.370;2023-07-22T10:32:39;94458.97;;;36.80;30.50
36932;BME280;22847;42.654;23.370;2023-07-22T10:35:10;94581.66;;;37.48;29.88
36932;BME280;22847;42.654;23.370;2023-07-22T10:37:37;94512.16;;;37.03;30.49
36932;BME280;22847;42.654;23.370;2023-07-22T10:40:19;94569.53;;;37.55;30.09
36932;BME280;22847;42.654;23.370;2023-07-22T10:43:04;94557.88;;;37.23;30.04
36932;BME280;22847;42.654;23.370;2023-07-22T10:45:33;94562.56;;;37.40;29.88
36932;BME280;22847;42.654;23.370;2023-07-22T10:50:44;94565.09;;;37.76;30.16
36932;BME280;22847;42.654;23.370;2023-07-22T10:53:13;94476.97;;;37.37;30.44
36932;BME280;22847;42.654;23.370;2023-07-22T10:56:11;94552.13;;;37.81;29.60
36932;BME280;22847;42.654;23.370;2023-07-22T11:04:23;94543.03;;;37.38;27.22
36932;BME280;22847;42.654;23.370;2023-07-22T11:12:01;94561.44;;;37.32;26.32
36932;BME280;22847;42.654;23.370;2023-07-22T11:14:44;94516.50;;;37.04;27.22
36932;BME280;22847;42.654;23.370;2023-07-22T11:17:10;94467.50;;;36.56;26.91
36932;BME280;22847;42.654;23.370;2023-07-22T11:19:37;94499.53;;;36.67;26.21
36932;BME280;22847;42.654;23.370;2023-07-22T11:22:05;94543.88;;;37.07;26.43
36932;BME280;22847;42.654;23.370;2023-07-22T11:24:32;94519.38;;;36.68;28.18
36932;BME280;22847;42.654;23.370;2023-07-22T11:26:59;94539.88;;;36.74;28.26
36932;BME280;22847;42.654;23.370;2023-07-22T11:29:24;94532.28;;;36.93;28.27
36932;BME280;22847;42.654;23.370;2023-07-22T11:31:51;94526.63;;;37.12;28.29
36932;BME280;22847;42.654;23.370;2023-07-22T11:36:44;94526.84;;;36.93;26.73
36932;BME280;22847;42.654;23.370;2023-07-22T11:39:18;94524.06;;;37.16;28.53
36932;BME280;22847;42.654;23.370;2023-07-22T11:41:45;94501.94;;;37.00;27.86
36932;BME280;22847;42.654;23.370;2023-07-22T11:44:12;94356.50;;;36.10;28.12
36932;BME280;22847;42.654;23.370;2023-07-22T11:47:04;94515.16;;;37.24;27.74
36932;BME280;22847;42.654;23.370;2023-07-22T11:49:40;94502.81;;;37.18;26.98
36932;BME280;22847;42.654;23.370;2023-07-22T11:52:10;94498.75;;;37.06;26.74
36932;BME280;22847;42.654;23.370;2023-07-22T11:54:40;94506.50;;;37.22;27.79
36932;BME280;22847;42.654;23.370;2023-07-22T11:59:46;94429.19;;;36.66;27.54
36932;BME280;22847;42.654;23.370;2023-07-22T12:02:16;94477.41;;;36.83;28.49
36932;BME280;22847;42.654;23.370;2023-07-22T12:04:43;94490.66;;;37.15;28.49
36932;BME280;22847;42.654;23.370;2023-07-22T12:07:25;94410.56;;;36.20;26.98
36932;BME280;22847;42.654;23.370;2023-07-22T12:09:52;94491.63;;;36.57;27.07
36932;BME280;22847;42.654;23.370;2023-07-22T12:12:17;94416.59;;;36.17;28.04
36932;BME280;22847;42.654;23.370;2023-07-22T12:14:43;94495.84;;;36.63;28.48
36932;BME280;22847;42.654;23.370;2023-07-22T12:17:09;94492.50;;;36.44;28.92
36932;BME280;22847;42.654;23.370;2023-07-22T12:19:35;94496.94;;;36.62;29.27
36932;BME280;22847;42.654;23.370;2023-07-22T12:22:01;94454.72;;;36.56;30.34
36932;BME280;22847;42.654;23.370;2023-07-22T12:24:28;94481.69;;;36.84;29.79
36932;BME280;22847;42.654;23.370;2023-07-22T12:26:53;94417.97;;;36.28;28.68
36932;BME280;22847;42.654;23.370;2023-07-22T12:29:19;94479.91;;;36.79;27.96
36932;BME280;22847;42.654;23.370;2023-07-22T12:31:44;94485.69;;;36.78;28.78
36932;BME280;22847;42.654;23.370;2023-07-22T12:34:10;94499.84;;;36.66;30.17
36932;BME280;22847;42.654;23.370;2023-07-22T12:36:35;94369.16;;;36.14;28.47
36932;BME280;22847;42.654;23.370;2023-07-22T12:39:01;94468.56;;;37.17;27.53
36932;BME280;22847;42.654;23.370;2023-07-22T12:41:26;94485.53;;;37.14;28.81
36932;BME280;22847;42.654;23.370;2023-07-22T12:43:52;94480.03;;;36.43;29.12
36932;BME280;22847;42.654;23.370;2023-07-22T12:46:17;94455.75;;;36.16;30.23
36932;BME280;22847;42.654;23.370;2023-07-22T12:48:43;94469.94;;;36.13;31.93
36932;BME280;22847;42.654;23.370;2023-07-22T12:51:08;94483.00;;;36.11;31.49
36932;BME280;22847;42.654;23.370;2023-07-22T12:53:35;94444.84;;;35.94;31.02
36932;BME280;22847;42.654;23.370;2023-07-22T12:56:00;94454.66;;;36.03;30.46
36932;BME280;22847;42.654;23.370;2023-07-22T12:58:28;94469.78;;;35.73;30.50
36932;BME280;22847;42.654;23.370;2023-07-22T13:00:54;94449.63;;;35.52;32.71
36932;BME280;22847;42.654;23.370;2023-07-22T13:03:19;94365.25;;;34.63;34.95
36932;BME280;22847;42.654;23.370;2023-07-22T13:05:45;94447.25;;;34.96;33.90